Redwood City, CA (94065)

10:22 PM PDT on March 22, 2017 (GMT -0700)
Neighborhood 4 | | Change Station

Elev 7 ft 37.55 °N, 122.26 °W | Updated 1 second ago

Partly Cloudy
Partly Cloudy
51.7 °F
Feels Like 51.7 °F
N
2.0
Wind Variable Wind from WNW
Gusts 8.0 mph

Today
High -- | Low -- °F
--% Chance of Precip.
Yesterday
High -- | Low -- °F
Precip. -- in
Pressure 30.13 in
Visibility 10.0 miles
Clouds Few 2600 ft
Dew Point 45 °F
Humidity 77%
Rainfall in
Snow Depth Not available.
7:08 AM 7:23 PM
Waning Crescent, 26% visible
METAR KSQL 230455Z AUTO 27005KT 10SM FEW026 11/07 A3013 RMK AO2
Pressure 30.13 in
Visibility 10.0 miles
Clouds Few 2600 ft
Dew Point 45 °F
Humidity 77%
Rainfall in
Snow Depth Not available.
7:08 AM 7:23 PM
Waning Crescent, 26% visible
METAR KSQL 230455Z AUTO 27005KT 10SM FEW026 11/07 A3013 RMK AO2

Get Severe Weather Alerts

Thanks for signing up!

Be on the lookout for a verification email in your inbox.

You'll start receiving the daily forecast at 8 AM.

×

10-Day Weather Forecast

Almanac

Astronomy

Mar. 22, 2017 Rise Set
Actual Time
Civil Twilight
Nautical Twilight
Astronomical Twilight
Moon
Length of Visible Light
Length of Day
Tomorrow will be .
, % of the Moon is Illuminated

Today's Extremes

State Highs State Lows

Community

WunderPhotos

Upload Photos

1,962,540 photos uploaded!

WunderBlog® & News

Nearby

Air Quality

  Air Quality AQ Index Pollutant
Not available.

Snow Depth

Station Depth Elevation

Earthquake Activity

City Distance Mag. Time & Date
Minimum magnitude displayed is 2.5.

Earthquake Activity

City Distance Mag. Time & Date
Minimum magnitude displayed is 2.5.

Coastal Water Temperatures

Place Temperature

Stations

Nearby Weather Stations

Station Location Temp. Windchill Dew Point Humidity Wind Precip. Elev Updated Type
                   

Watches & Warnings

There are currently no watches in effect.